createdAt,value
2018-09-18T00:00:59.000Z,1008.10
2018-09-18T00:01:59.005Z,1008.07
2018-09-18T00:02:58.951Z,1008.07
2018-09-18T00:03:58.924Z,1008.07
2018-09-18T00:04:58.983Z,1008.06
2018-09-18T00:05:59.057Z,1008.08
2018-09-18T00:06:58.960Z,1008.07
2018-09-18T00:07:58.932Z,1008.01
2018-09-18T00:08:59.016Z,1008.04
2018-09-18T00:09:59.026Z,1008.05
2018-09-18T00:10:58.929Z,1008.02
2018-09-18T00:11:58.959Z,1007.97
2018-09-18T00:12:59.004Z,1008.00
2018-09-18T00:13:59.003Z,1007.95
2018-09-18T00:14:59.028Z,1007.97
2018-09-18T00:15:59.015Z,1007.97
2018-09-18T00:16:59.005Z,1007.93
2018-09-18T00:17:59.027Z,1007.88
2018-09-18T00:18:59.108Z,1007.91
2018-09-18T00:20:00.836Z,1007.88
2018-09-18T00:20:58.974Z,1007.90
2018-09-18T00:21:58.906Z,1007.87
2018-09-18T00:22:58.846Z,1007.91
2018-09-18T00:23:58.830Z,1007.86
2018-09-18T00:24:58.918Z,1007.91
2018-09-18T00:25:58.872Z,1007.91
2018-09-18T00:26:58.931Z,1007.89
2018-09-18T00:28:00.529Z,1007.84
2018-09-18T00:28:58.971Z,1007.84
2018-09-18T00:29:58.956Z,1007.81
2018-09-18T00:30:58.992Z,1007.84
2018-09-18T00:31:59.022Z,1007.81
2018-09-18T00:32:59.002Z,1007.84
2018-09-18T00:33:58.990Z,1007.84
2018-09-18T00:34:58.976Z,1007.82
2018-09-18T00:35:58.923Z,1007.83
2018-09-18T00:36:58.931Z,1007.86
2018-09-18T00:37:58.873Z,1007.85
2018-09-18T00:38:58.861Z,1007.87
2018-09-18T00:39:58.953Z,1007.84
2018-09-18T00:40:58.921Z,1007.83
2018-09-18T00:41:58.944Z,1007.80
2018-09-18T00:42:58.915Z,1007.81
2018-09-18T00:43:58.872Z,1007.80
2018-09-18T00:44:58.920Z,1007.78
2018-09-18T00:45:58.934Z,1007.74
2018-09-18T00:48:31.900Z,1007.73
2018-09-18T00:49:32.009Z,1007.72
2018-09-18T00:51:26.553Z,1007.70
2018-09-18T00:52:27.034Z,1007.70
2018-09-18T00:54:23.523Z,1007.69
2018-09-18T00:55:23.659Z,1007.69
2018-09-18T00:56:23.710Z,1007.68
2018-09-18T00:57:23.938Z,1007.66
2018-09-18T00:58:23.720Z,1007.65
2018-09-18T00:59:23.697Z,1007.64
2018-09-18T01:00:23.719Z,1007.63
2018-09-18T01:01:23.704Z,1007.61
2018-09-18T01:02:23.709Z,1007.62
2018-09-18T01:03:23.760Z,1007.60
2018-09-18T01:04:23.738Z,1007.60
2018-09-18T01:05:23.754Z,1007.62
2018-09-18T01:06:23.756Z,1007.59
2018-09-18T01:07:23.956Z,1007.59
2018-09-18T01:08:23.736Z,1007.60
2018-09-18T01:09:23.735Z,1007.59
2018-09-18T01:10:23.756Z,1007.58
2018-09-18T01:11:23.761Z,1007.58
2018-09-18T01:12:23.758Z,1007.57
2018-09-18T01:13:23.719Z,1007.56
2018-09-18T01:14:23.760Z,1007.59
2018-09-18T01:15:23.741Z,1007.56
2018-09-18T01:16:23.768Z,1007.56
2018-09-18T01:17:23.821Z,1007.52
2018-09-18T01:18:23.738Z,1007.55
2018-09-18T01:19:23.815Z,1007.55
2018-09-18T01:20:23.849Z,1007.55
2018-09-18T01:21:23.722Z,1007.52
2018-09-18T01:22:23.743Z,1007.49
2018-09-18T01:23:23.762Z,1007.54
2018-09-18T01:24:23.733Z,1007.50
2018-09-18T01:25:23.673Z,1007.50
2018-09-18T01:26:23.929Z,1007.47
2018-09-18T01:27:23.713Z,1007.49
2018-09-18T01:28:23.718Z,1007.48
2018-09-18T01:29:25.759Z,1007.46
2018-09-18T01:30:23.750Z,1007.47
2018-09-18T01:31:39.928Z,1007.49
2018-09-18T01:32:45.930Z,1007.43
2018-09-18T01:33:39.192Z,1007.47
2018-09-18T01:34:23.671Z,1007.43
2018-09-18T01:35:23.709Z,1007.49
2018-09-18T01:36:23.727Z,1007.47
2018-09-18T01:37:23.947Z,1007.45
2018-09-18T01:38:23.725Z,1007.47
2018-09-18T01:39:23.707Z,1007.49
2018-09-18T01:40:25.934Z,1007.44
2018-09-18T01:41:23.761Z,1007.45
2018-09-18T01:42:23.734Z,1007.45
2018-09-18T01:43:25.685Z,1007.44
2018-09-18T01:44:23.805Z,1007.46
2018-09-18T01:45:23.946Z,1007.46
2018-09-18T01:46:23.757Z,1007.44
2018-09-18T01:47:23.949Z,1007.45
2018-09-18T01:48:23.742Z,1007.42
2018-09-18T01:49:23.744Z,1007.42
2018-09-18T01:50:23.737Z,1007.39
2018-09-18T01:51:23.680Z,1007.40
2018-09-18T01:52:23.707Z,1007.39
2018-09-18T01:53:23.760Z,1007.38
2018-09-18T01:54:23.687Z,1007.31
2018-09-18T01:55:23.654Z,1007.30
2018-09-18T01:56:23.686Z,1007.36
2018-09-18T01:57:23.751Z,1007.35
2018-09-18T01:58:23.747Z,1007.35
2018-09-18T01:59:23.710Z,1007.35
2018-09-18T02:00:23.938Z,1007.33
2018-09-18T02:01:23.936Z,1007.31
2018-09-18T02:02:23.740Z,1007.30
2018-09-18T02:03:23.682Z,1007.32
2018-09-18T02:04:23.753Z,1007.28
2018-09-18T02:05:23.732Z,1007.26
2018-09-18T02:06:23.823Z,1007.27
2018-09-18T02:07:23.736Z,1007.27
2018-09-18T02:08:23.792Z,1007.25
2018-09-18T02:09:23.799Z,1007.24
2018-09-18T02:10:23.760Z,1007.26
2018-09-18T02:11:23.731Z,1007.25
2018-09-18T02:13:23.780Z,1007.23
2018-09-18T02:14:23.809Z,1007.26
2018-09-18T02:15:23.759Z,1007.25
2018-09-18T02:16:23.749Z,1007.24
2018-09-18T02:17:23.792Z,1007.24
2018-09-18T02:18:23.816Z,1007.24
2018-09-18T02:19:23.807Z,1007.26
2018-09-18T02:20:23.945Z,1007.26
2018-09-18T02:21:23.763Z,1007.20
2018-09-18T02:22:23.790Z,1007.25
2018-09-18T02:23:23.737Z,1007.29
2018-09-18T02:24:23.732Z,1007.24
2018-09-18T02:25:23.692Z,1007.27
2018-09-18T02:26:23.715Z,1007.23
2018-09-18T02:27:25.947Z,1007.20
2018-09-18T02:28:23.733Z,1007.21
2018-09-18T02:29:23.946Z,1007.26
2018-09-18T02:30:23.827Z,1007.17
2018-09-18T02:31:23.694Z,1007.17
2018-09-18T02:32:23.708Z,1007.21
2018-09-18T02:33:23.950Z,1007.20
2018-09-18T02:34:23.673Z,1007.22
2018-09-18T02:35:23.739Z,1007.19
2018-09-18T02:36:23.736Z,1007.17
2018-09-18T02:37:23.762Z,1007.16
2018-09-18T02:38:23.775Z,1007.13
2018-09-18T02:39:23.765Z,1007.17
2018-09-18T02:40:24.462Z,1007.11
2018-09-18T02:41:23.712Z,1007.19
2018-09-18T02:42:25.233Z,1007.14
2018-09-18T02:43:23.475Z,1007.16
2018-09-18T02:44:23.449Z,1007.18
2018-09-18T02:45:25.281Z,1007.11
2018-09-18T02:46:25.245Z,1007.12
2018-09-18T02:47:23.466Z,1007.10
2018-09-18T02:48:25.271Z,1007.11
2018-09-18T02:49:23.547Z,1007.12
2018-09-18T02:50:23.515Z,1007.13
2018-09-18T02:51:23.377Z,1007.08
2018-09-18T02:52:23.283Z,1007.08
2018-09-18T02:53:23.393Z,1007.04
2018-09-18T02:54:23.338Z,1007.05
2018-09-18T02:55:23.338Z,1007.07
2018-09-18T02:56:23.270Z,1007.08
2018-09-18T02:57:23.368Z,1007.06
2018-09-18T02:58:23.353Z,1007.00
2018-09-18T02:59:23.387Z,1007.04
2018-09-18T03:00:25.472Z,1007.03
2018-09-18T03:01:23.412Z,1007.02
2018-09-18T03:02:23.405Z,1007.02
2018-09-18T03:03:24.387Z,1007.02
2018-09-18T03:04:23.398Z,1007.01
2018-09-18T03:05:23.410Z,1006.97
2018-09-18T03:06:23.283Z,1007.02
2018-09-18T03:07:23.453Z,1006.97
2018-09-18T03:08:23.331Z,1006.98
2018-09-18T03:09:23.449Z,1006.94
2018-09-18T03:10:23.383Z,1006.93
2018-09-18T03:11:25.470Z,1006.99
2018-09-18T03:12:23.327Z,1006.95
2018-09-18T03:13:25.399Z,1006.95
2018-09-18T03:14:24.265Z,1006.95
2018-09-18T03:15:24.354Z,1006.89
2018-09-18T03:16:23.338Z,1006.91
2018-09-18T03:17:23.399Z,1006.93
2018-09-18T03:18:23.438Z,1006.89
2018-09-18T03:19:23.325Z,1006.90
2018-09-18T03:20:23.364Z,1006.90
2018-09-18T03:21:23.202Z,1006.91
2018-09-18T03:22:23.258Z,1006.89
2018-09-18T03:23:23.271Z,1006.87
2018-09-18T03:24:24.233Z,1006.86
2018-09-18T03:25:23.272Z,1006.88
2018-09-18T03:26:24.245Z,1006.86
2018-09-18T03:27:23.326Z,1006.89
2018-09-18T03:28:23.372Z,1006.83
2018-09-18T03:29:23.348Z,1006.82
2018-09-18T03:30:23.363Z,1006.81
2018-09-18T03:31:23.283Z,1006.83
2018-09-18T03:32:23.339Z,1006.79
2018-09-18T03:33:25.518Z,1006.80
2018-09-18T03:34:23.290Z,1006.80
2018-09-18T03:35:23.394Z,1006.80
2018-09-18T03:36:23.291Z,1006.78
2018-09-18T03:37:23.380Z,1006.75
2018-09-18T03:38:23.373Z,1006.73
2018-09-18T03:39:24.393Z,1006.76
2018-09-18T03:40:23.350Z,1006.79
2018-09-18T03:41:24.296Z,1006.74
2018-09-18T03:42:23.471Z,1006.73
2018-09-18T03:43:23.370Z,1006.73
2018-09-18T03:44:23.387Z,1006.73
2018-09-18T03:45:23.392Z,1006.71
2018-09-18T03:46:23.394Z,1006.68
2018-09-18T03:47:23.314Z,1006.64
2018-09-18T03:48:23.318Z,1006.64
2018-09-18T03:49:23.988Z,1006.65
2018-09-18T03:50:23.401Z,1006.65
2018-09-18T03:51:23.304Z,1006.63
2018-09-18T03:52:31.238Z,1006.59
2018-09-18T03:53:23.194Z,1006.63
2018-09-18T03:54:27.228Z,1006.64
2018-09-18T03:55:25.295Z,1006.62
2018-09-18T03:56:23.257Z,1006.64
2018-09-18T03:57:24.170Z,1006.65
2018-09-18T03:58:23.258Z,1006.64
2018-09-18T03:59:23.251Z,1006.63
2018-09-18T04:00:23.292Z,1006.63
2018-09-18T04:01:25.029Z,1006.65
2018-09-18T04:02:23.272Z,1006.61
2018-09-18T04:03:23.319Z,1006.62
2018-09-18T04:04:23.312Z,1006.62
2018-09-18T04:05:23.282Z,1006.59
2018-09-18T04:06:23.336Z,1006.56
2018-09-18T04:07:23.292Z,1006.57
2018-09-18T04:08:23.282Z,1006.58
2018-09-18T04:09:23.314Z,1006.53
2018-09-18T04:10:23.294Z,1006.58
2018-09-18T04:11:24.296Z,1006.53
2018-09-18T04:12:23.356Z,1006.53
2018-09-18T04:13:23.356Z,1006.55
2018-09-18T04:14:23.317Z,1006.51
2018-09-18T04:15:23.308Z,1006.54
2018-09-18T04:16:25.511Z,1006.52
2018-09-18T04:17:23.335Z,1006.48
2018-09-18T04:18:23.348Z,1006.49
2018-09-18T04:19:25.481Z,1006.49
2018-09-18T04:20:23.317Z,1006.48
2018-09-18T04:21:23.269Z,1006.47
2018-09-18T04:22:23.189Z,1006.50
2018-09-18T04:23:23.232Z,1006.47
2018-09-18T04:24:23.245Z,1006.43
2018-09-18T04:25:25.493Z,1006.41
2018-09-18T04:26:23.269Z,1006.42
2018-09-18T04:27:23.275Z,1006.42
2018-09-18T04:28:23.278Z,1006.44
2018-09-18T04:29:23.291Z,1006.43
2018-09-18T04:30:23.293Z,1006.44
2018-09-18T04:31:23.203Z,1006.43
2018-09-18T04:32:23.254Z,1006.40
2018-09-18T04:33:23.305Z,1006.35
2018-09-18T04:34:23.295Z,1006.38
2018-09-18T04:35:23.290Z,1006.38
2018-09-18T04:36:23.274Z,1006.35
2018-09-18T04:37:23.322Z,1006.33
2018-09-18T04:38:25.075Z,1006.38
2018-09-18T04:39:23.311Z,1006.39
2018-09-18T04:40:23.315Z,1006.32
2018-09-18T04:41:23.307Z,1006.30
2018-09-18T04:42:23.313Z,1006.35
2018-09-18T04:43:23.309Z,1006.35
2018-09-18T04:44:23.291Z,1006.32
2018-09-18T04:45:23.341Z,1006.30
2018-09-18T04:46:23.354Z,1006.30
2018-09-18T04:47:23.333Z,1006.31
2018-09-18T04:48:23.352Z,1006.31
2018-09-18T04:49:23.267Z,1006.28
2018-09-18T04:50:23.313Z,1006.29
2018-09-18T04:51:25.495Z,1006.31
2018-09-18T04:52:23.256Z,1006.32
2018-09-18T04:53:23.264Z,1006.30
2018-09-18T04:54:23.269Z,1006.34
2018-09-18T04:55:23.236Z,1006.34
2018-09-18T04:56:23.272Z,1006.35
2018-09-18T04:57:23.247Z,1006.34
2018-09-18T04:58:23.275Z,1006.28
2018-09-18T04:59:23.311Z,1006.31
2018-09-18T05:00:23.260Z,1006.31
2018-09-18T05:01:23.254Z,1006.27
2018-09-18T05:02:23.290Z,1006.30
2018-09-18T05:03:23.265Z,1006.28
2018-09-18T05:04:23.285Z,1006.29
2018-09-18T05:05:25.510Z,1006.30
2018-09-18T05:06:23.554Z,1006.26
2018-09-18T05:07:23.265Z,1006.28
2018-09-18T05:08:23.310Z,1006.25
2018-09-18T05:09:23.458Z,1006.26
2018-09-18T05:10:23.327Z,1006.27
2018-09-18T05:11:25.311Z,1006.23
2018-09-18T05:12:23.557Z,1006.27
2018-09-18T05:13:25.117Z,1006.27
2018-09-18T05:14:25.496Z,1006.26
2018-09-18T05:15:23.375Z,1006.25
2018-09-18T05:16:23.843Z,1006.24
2018-09-18T05:17:23.311Z,1006.18
2018-09-18T05:18:23.303Z,1006.22
2018-09-18T05:19:23.592Z,1006.21
2018-09-18T05:20:23.320Z,1006.21
2018-09-18T05:21:23.846Z,1006.23
2018-09-18T05:22:23.573Z,1006.20
2018-09-18T05:23:24.304Z,1006.19
2018-09-18T05:24:23.299Z,1006.18
2018-09-18T05:25:23.340Z,1006.19
2018-09-18T05:26:23.304Z,1006.18
2018-09-18T05:27:23.615Z,1006.21
2018-09-18T05:28:23.623Z,1006.17
2018-09-18T05:29:23.517Z,1006.20
2018-09-18T05:30:22.882Z,1006.18
2018-09-18T05:31:23.353Z,1006.17
2018-09-18T05:32:23.279Z,1006.16
2018-09-18T05:33:23.272Z,1006.20
2018-09-18T05:34:23.283Z,1006.22
2018-09-18T05:35:23.263Z,1006.22
2018-09-18T05:36:23.363Z,1006.19
2018-09-18T05:37:23.272Z,1006.26
2018-09-18T05:38:23.333Z,1006.23
2018-09-18T05:39:23.283Z,1006.26
2018-09-18T05:40:23.384Z,1006.21
2018-09-18T05:41:22.702Z,1006.23
2018-09-18T05:42:23.357Z,1006.20
2018-09-18T05:43:23.304Z,1006.20
2018-09-18T05:44:23.283Z,1006.20
2018-09-18T05:45:23.282Z,1006.14
2018-09-18T05:46:23.357Z,1006.19
2018-09-18T05:47:23.279Z,1006.16
2018-09-18T05:48:23.309Z,1006.19
2018-09-18T05:49:23.343Z,1006.15
2018-09-18T05:50:24.115Z,1006.17
2018-09-18T05:51:23.302Z,1006.13
2018-09-18T05:52:24.021Z,1006.19
2018-09-18T05:53:23.607Z,1006.16
2018-09-18T05:54:23.572Z,1006.15
2018-09-18T05:55:22.721Z,1006.20
2018-09-18T05:56:23.877Z,1006.17
2018-09-18T05:57:24.769Z,1006.17
2018-09-18T05:58:25.370Z,1006.15
2018-09-18T05:59:24.009Z,1006.19
2018-09-18T06:00:25.564Z,1006.20
2018-09-18T06:01:23.570Z,1006.11
2018-09-18T06:02:25.281Z,1006.17
2018-09-18T06:03:23.332Z,1006.14
2018-09-18T06:04:23.294Z,1006.11
2018-09-18T06:05:25.347Z,1006.12
2018-09-18T06:06:23.337Z,1006.09
2018-09-18T06:07:25.213Z,1006.10
2018-09-18T06:08:23.072Z,1006.13
2018-09-18T06:09:23.572Z,1006.06
2018-09-18T06:10:25.485Z,1006.10
2018-09-18T06:11:25.082Z,1006.06
2018-09-18T06:12:23.529Z,1006.03
2018-09-18T06:13:23.598Z,1006.01
2018-09-18T06:14:23.119Z,1006.00
2018-09-18T06:15:23.322Z,1006.00
2018-09-18T06:16:25.467Z,1006.00
2018-09-18T06:17:23.024Z,1006.02
2018-09-18T06:18:22.657Z,1006.05
2018-09-18T06:19:25.482Z,1006.05
2018-09-18T06:20:23.081Z,1006.07
2018-09-18T06:21:23.305Z,1006.07
2018-09-18T06:22:25.103Z,1006.05
2018-09-18T06:23:23.108Z,1006.06
2018-09-18T06:24:22.626Z,1006.08
2018-09-18T06:25:22.970Z,1006.04
2018-09-18T06:26:23.106Z,1006.03
2018-09-18T06:27:24.884Z,1006.03
2018-09-18T06:28:23.244Z,1006.02
2018-09-18T06:29:22.985Z,1006.07
2018-09-18T06:30:23.363Z,1006.01
2018-09-18T06:31:23.550Z,1005.99
2018-09-18T06:32:22.879Z,1005.92
2018-09-18T06:33:23.073Z,1005.94
2018-09-18T06:34:23.169Z,1005.92
2018-09-18T06:35:23.042Z,1005.95
2018-09-18T06:36:23.496Z,1005.95
2018-09-18T06:37:23.270Z,1005.97
2018-09-18T06:38:23.104Z,1006.04
2018-09-18T06:39:23.506Z,1006.02
2018-09-18T06:42:08.073Z,1006.06
2018-09-18T06:43:08.680Z,1006.09
2018-09-18T06:45:02.221Z,1006.09
2018-09-18T06:46:02.887Z,1006.11
2018-09-18T06:47:57.000Z,1006.13
2018-09-18T06:48:57.170Z,1006.09
2018-09-18T06:50:51.253Z,1006.12
2018-09-18T06:51:51.283Z,1006.11
2018-09-18T06:53:45.382Z,1006.14
2018-09-18T06:54:45.428Z,1006.13
2018-09-18T06:56:39.585Z,1006.12
2018-09-18T06:57:39.987Z,1006.12
2018-09-18T06:59:33.780Z,1006.13
2018-09-18T07:00:33.792Z,1006.08
2018-09-18T07:02:27.958Z,1006.12
2018-09-18T07:03:28.328Z,1006.10
2018-09-18T07:05:22.355Z,1006.08
2018-09-18T07:06:22.655Z,1006.11
2018-09-18T07:08:17.278Z,1006.08
2018-09-18T07:09:17.752Z,1006.09
2018-09-18T07:11:12.525Z,1006.13
2018-09-18T07:12:11.857Z,1006.13
2018-09-18T07:14:05.452Z,1006.15
2018-09-18T07:15:06.011Z,1006.13
2018-09-18T07:17:00.078Z,1006.12
2018-09-18T07:18:08.080Z,1006.09
2018-09-18T07:19:56.179Z,1006.04
2018-09-18T07:20:57.927Z,1006.05
2018-09-18T07:22:00.712Z,1006.04
2018-09-18T07:22:58.734Z,1006.06
2018-09-18T07:23:57.638Z,1006.06
2018-09-18T07:24:56.984Z,1006.07
2018-09-18T07:25:57.951Z,1006.08
2018-09-18T07:26:56.647Z,1006.08
2018-09-18T07:27:56.942Z,1006.09
2018-09-18T07:28:56.570Z,1006.07
2018-09-18T07:29:58.627Z,1006.07
2018-09-18T07:30:57.308Z,1006.13
2018-09-18T07:31:58.350Z,1006.11
2018-09-18T07:32:58.694Z,1006.13
2018-09-18T07:33:58.711Z,1006.11
2018-09-18T07:34:56.912Z,1006.08
2018-09-18T07:35:56.007Z,1006.11
2018-09-18T07:36:56.386Z,1006.11
2018-09-18T07:37:57.435Z,1006.11
2018-09-18T07:38:58.153Z,1006.07
2018-09-18T07:40:18.367Z,1006.04
2018-09-18T07:40:56.993Z,1006.08
2018-09-18T07:43:30.550Z,1006.10
2018-09-18T07:44:31.103Z,1006.05
2018-09-18T07:48:36.454Z,1006.04
2018-09-18T07:49:35.916Z,1005.96
2018-09-18T07:50:36.772Z,1005.94
2018-09-18T07:51:36.474Z,1005.93
2018-09-18T07:52:36.877Z,1005.94
2018-09-18T07:53:35.517Z,1006.00
2018-09-18T07:54:36.374Z,1005.94
2018-09-18T07:55:34.877Z,1005.96
2018-09-18T07:56:34.442Z,1005.97
2018-09-18T07:57:35.942Z,1005.99
2018-09-18T07:58:35.284Z,1006.01
2018-09-18T07:59:34.389Z,1006.00
2018-09-18T08:00:38.178Z,1006.00
2018-09-18T08:01:34.458Z,1006.02
2018-09-18T08:02:35.301Z,1005.97
2018-09-18T08:03:34.993Z,1005.97
2018-09-18T08:04:34.900Z,1005.97
2018-09-18T08:05:37.464Z,1005.96
2018-09-18T08:06:36.422Z,1005.92
2018-09-18T08:07:43.300Z,1005.86
2018-09-18T08:08:36.348Z,1005.92
2018-09-18T08:09:38.892Z,1005.86
2018-09-18T08:10:36.102Z,1005.89
2018-09-18T08:11:34.472Z,1005.86
2018-09-18T08:12:56.461Z,1005.86
2018-09-18T08:13:35.241Z,1005.89
2018-09-18T08:14:34.815Z,1005.86
2018-09-18T08:15:35.402Z,1005.86
2018-09-18T08:16:34.532Z,1005.87
2018-09-18T08:17:35.349Z,1005.82
2018-09-18T08:18:34.396Z,1005.77
2018-09-18T08:19:35.074Z,1005.74
2018-09-18T08:20:34.735Z,1005.73
2018-09-18T08:21:35.402Z,1005.74
2018-09-18T08:22:34.943Z,1005.70
2018-09-18T08:23:34.769Z,1005.67
2018-09-18T08:24:34.734Z,1005.67
2018-09-18T08:25:34.522Z,1005.67
2018-09-18T08:26:34.784Z,1005.64
2018-09-18T08:27:34.751Z,1005.65
2018-09-18T08:29:34.774Z,1005.63
2018-09-18T08:30:34.806Z,1005.66
2018-09-18T08:31:34.513Z,1005.66
2018-09-18T08:32:34.812Z,1005.71
2018-09-18T08:33:34.840Z,1005.71
2018-09-18T08:34:34.783Z,1005.70
2018-09-18T08:35:34.796Z,1005.71
2018-09-18T08:36:35.263Z,1005.76
2018-09-18T08:37:34.995Z,1005.75
2018-09-18T08:38:35.157Z,1005.75
2018-09-18T08:39:34.540Z,1005.73
2018-09-18T08:40:43.072Z,1005.76
2018-09-18T08:41:35.412Z,1005.70
2018-09-18T08:42:34.683Z,1005.77
2018-09-18T08:43:37.176Z,1005.72
2018-09-18T08:44:34.797Z,1005.73
2018-09-18T08:46:35.260Z,1005.72
2018-09-18T08:47:34.981Z,1005.76
2018-09-18T08:48:34.972Z,1005.74
2018-09-18T08:49:36.713Z,1005.76
2018-09-18T08:50:34.950Z,1005.79
2018-09-18T08:51:34.799Z,1005.78
2018-09-18T08:52:36.727Z,1005.76
2018-09-18T08:53:34.821Z,1005.78
2018-09-18T08:54:34.418Z,1005.76
2018-09-18T08:55:34.774Z,1005.76
2018-09-18T08:56:37.052Z,1005.73
2018-09-18T08:57:34.997Z,1005.68
2018-09-18T08:58:36.045Z,1005.66
2018-09-18T08:59:34.680Z,1005.67
2018-09-18T09:00:35.273Z,1005.67
2018-09-18T09:01:35.797Z,1005.63
2018-09-18T09:02:35.032Z,1005.67
2018-09-18T09:03:34.910Z,1005.63
2018-09-18T09:04:35.441Z,1005.59
2018-09-18T09:05:37.477Z,1005.59
2018-09-18T09:06:35.425Z,1005.53
2018-09-18T09:07:35.348Z,1005.54
2018-09-18T09:08:35.507Z,1005.57
2018-09-18T09:09:35.425Z,1005.56
2018-09-18T09:10:34.832Z,1005.58
2018-09-18T09:11:35.363Z,1005.55
2018-09-18T09:12:34.844Z,1005.52
2018-09-18T09:13:34.935Z,1005.55
2018-09-18T09:14:35.105Z,1005.61
2018-09-18T09:15:35.303Z,1005.53
2018-09-18T09:16:35.814Z,1005.56
2018-09-18T09:17:36.285Z,1005.53
2018-09-18T09:18:35.538Z,1005.53
2018-09-18T09:19:36.476Z,1005.54
2018-09-18T09:20:34.788Z,1005.59
2018-09-18T09:21:34.823Z,1005.59
2018-09-18T09:22:34.425Z,1005.56
2018-09-18T09:23:34.672Z,1005.55
2018-09-18T09:24:35.041Z,1005.57
2018-09-18T09:25:37.043Z,1005.52
2018-09-18T09:26:37.048Z,1005.64
2018-09-18T09:27:35.401Z,1005.64
2018-09-18T09:28:34.775Z,1005.58
2018-09-18T09:29:34.901Z,1005.60
2018-09-18T09:30:34.736Z,1005.58
2018-09-18T09:31:34.806Z,1005.70
2018-09-18T09:32:34.955Z,1005.66
2018-09-18T09:33:34.678Z,1005.66
2018-09-18T09:34:34.752Z,1005.63
2018-09-18T09:35:35.272Z,1005.68
2018-09-18T09:36:34.669Z,1005.60
2018-09-18T09:37:36.810Z,1005.59
2018-09-18T09:38:35.457Z,1005.63
2018-09-18T09:39:34.844Z,1005.59
2018-09-18T09:40:34.816Z,1005.56
2018-09-18T09:41:34.837Z,1005.50
2018-09-18T09:42:34.883Z,1005.50
2018-09-18T09:43:34.832Z,1005.47
2018-09-18T09:44:34.809Z,1005.50
2018-09-18T09:45:35.289Z,1005.55
2018-09-18T09:46:34.546Z,1005.47
2018-09-18T09:47:36.488Z,1005.48
2018-09-18T09:48:34.816Z,1005.50
2018-09-18T09:49:34.885Z,1005.48
2018-09-18T09:50:34.956Z,1005.49
2018-09-18T09:51:35.406Z,1005.51
2018-09-18T09:52:35.439Z,1005.55
2018-09-18T09:53:37.071Z,1005.53
2018-09-18T09:54:35.000Z,1005.53
2018-09-18T09:55:34.927Z,1005.54
2018-09-18T09:56:37.066Z,1005.50
2018-09-18T09:57:34.924Z,1005.53
2018-09-18T09:58:34.972Z,1005.58
2018-09-18T09:59:35.018Z,1005.49
2018-09-18T10:00:34.809Z,1005.43
2018-09-18T10:01:34.780Z,1005.46
2018-09-18T10:02:40.955Z,1005.49
2018-09-18T10:03:34.923Z,1005.38
2018-09-18T10:04:35.085Z,1005.41
2018-09-18T10:05:35.432Z,1005.40
2018-09-18T10:06:35.293Z,1005.36
2018-09-18T10:07:35.280Z,1005.45
2018-09-18T10:08:35.003Z,1005.51
2018-09-18T10:09:34.524Z,1005.39
2018-09-18T10:10:35.332Z,1005.36
2018-09-18T10:11:41.500Z,1005.39
2018-09-18T10:12:36.753Z,1005.35
2018-09-18T10:13:34.820Z,1005.39
2018-09-18T10:14:35.400Z,1005.38
2018-09-18T10:15:35.943Z,1005.39
2018-09-18T10:16:35.103Z,1005.39
2018-09-18T10:17:45.472Z,1005.36
2018-09-18T10:18:36.855Z,1005.37
2018-09-18T10:19:35.511Z,1005.35
2018-09-18T10:20:37.351Z,1005.35
2018-09-18T10:21:37.763Z,1005.36
2018-09-18T10:22:34.849Z,1005.35
2018-09-18T10:23:36.332Z,1005.32
2018-09-18T10:24:37.512Z,1005.27
2018-09-18T10:25:42.174Z,1005.37
2018-09-18T10:26:34.908Z,1005.37
2018-09-18T10:27:36.043Z,1005.43
2018-09-18T10:28:35.009Z,1005.34
2018-09-18T10:29:57.168Z,1005.40
2018-09-18T10:30:40.790Z,1005.29
2018-09-18T10:31:42.323Z,1005.38
2018-09-18T10:32:37.050Z,1005.40
2018-09-18T10:33:36.953Z,1005.45
2018-09-18T10:34:35.042Z,1005.44
2018-09-18T10:35:34.795Z,1005.29
2018-09-18T10:36:34.750Z,1005.38
2018-09-18T10:37:34.788Z,1005.39
2018-09-18T10:38:34.465Z,1005.49
2018-09-18T10:39:35.339Z,1005.40
2018-09-18T10:40:39.302Z,1005.42
2018-09-18T10:41:35.082Z,1005.38
2018-09-18T10:42:39.316Z,1005.34
2018-09-18T10:43:35.476Z,1005.42
2018-09-18T10:44:34.581Z,1005.35
2018-09-18T10:45:36.336Z,1005.40
2018-09-18T10:46:34.608Z,1005.43
2018-09-18T10:47:37.081Z,1005.32
2018-09-18T10:48:35.006Z,1005.42
2018-09-18T10:49:37.030Z,1005.31
2018-09-18T10:50:35.528Z,1005.43
2018-09-18T10:51:36.950Z,1005.36
2018-09-18T10:52:35.471Z,1005.41
2018-09-18T10:53:57.557Z,1005.44
2018-09-18T10:54:35.728Z,1005.42
2018-09-18T10:55:36.835Z,1005.39
2018-09-18T10:56:34.953Z,1005.37
2018-09-18T10:57:35.464Z,1005.38
2018-09-18T10:58:35.008Z,1005.37
2018-09-18T10:59:35.008Z,1005.47
2018-09-18T11:00:35.583Z,1005.45
2018-09-18T11:01:34.897Z,1005.55
2018-09-18T11:02:36.000Z,1005.51
2018-09-18T11:03:34.991Z,1005.52
2018-09-18T11:04:35.005Z,1005.53
2018-09-18T11:05:35.991Z,1005.66
2018-09-18T11:06:35.529Z,1005.72
2018-09-18T11:07:35.439Z,1005.72
2018-09-18T11:08:35.258Z,1005.69
2018-09-18T11:09:35.588Z,1005.77
2018-09-18T11:10:35.683Z,1005.77
2018-09-18T11:11:35.164Z,1005.86
2018-09-18T11:12:35.601Z,1005.83
2018-09-18T11:13:35.574Z,1005.78
2018-09-18T11:14:35.866Z,1005.75
2018-09-18T11:15:35.981Z,1005.84
2018-09-18T11:16:35.577Z,1005.81
2018-09-18T11:17:35.553Z,1005.80
2018-09-18T11:18:35.334Z,1005.84
2018-09-18T11:19:35.887Z,1005.76
2018-09-18T11:20:37.597Z,1005.84
2018-09-18T11:21:36.015Z,1005.74
2018-09-18T11:22:36.593Z,1005.82
2018-09-18T11:23:35.570Z,1005.92
2018-09-18T11:24:35.917Z,1005.84
2018-09-18T11:25:35.531Z,1005.80
2018-09-18T11:26:35.580Z,1005.90
2018-09-18T11:27:35.870Z,1005.77
2018-09-18T11:28:35.561Z,1005.85
2018-09-18T11:29:37.081Z,1005.85
2018-09-18T11:30:34.890Z,1005.77
2018-09-18T11:31:35.317Z,1005.83
2018-09-18T11:32:35.672Z,1005.85
2018-09-18T11:33:37.846Z,1005.81
2018-09-18T11:34:35.959Z,1005.86
2018-09-18T11:35:36.058Z,1005.92
2018-09-18T11:36:35.283Z,1005.89
2018-09-18T11:37:35.315Z,1005.80
2018-09-18T11:38:37.783Z,1005.86
2018-09-18T11:39:35.154Z,1005.78
2018-09-18T11:40:37.509Z,1005.70
2018-09-18T11:41:36.173Z,1005.70
2018-09-18T11:42:35.979Z,1005.76
2018-09-18T11:43:35.725Z,1005.71
2018-09-18T11:44:35.781Z,1005.71
2018-09-18T11:45:35.612Z,1005.70
2018-09-18T11:46:35.411Z,1005.69
2018-09-18T11:47:36.057Z,1005.66
2018-09-18T11:48:36.389Z,1005.73
2018-09-18T11:49:35.622Z,1005.69
2018-09-18T11:50:36.591Z,1005.68
2018-09-18T11:51:35.554Z,1005.67
2018-09-18T11:52:35.855Z,1005.66
2018-09-18T11:53:35.204Z,1005.66
2018-09-18T11:54:36.473Z,1005.63
2018-09-18T11:55:38.023Z,1005.70
2018-09-18T11:56:36.537Z,1005.68
2018-09-18T11:57:38.020Z,1005.73
2018-09-18T11:58:35.590Z,1005.71
2018-09-18T11:59:36.131Z,1005.71
2018-09-18T12:00:35.913Z,1005.70
2018-09-18T12:01:35.648Z,1005.76
2018-09-18T12:02:36.155Z,1005.79
2018-09-18T12:03:36.129Z,1005.79
2018-09-18T12:04:38.072Z,1005.75
2018-09-18T12:05:36.899Z,1005.82
2018-09-18T12:06:38.027Z,1005.78
2018-09-18T12:07:36.091Z,1005.84
2018-09-18T12:08:36.017Z,1005.76
2018-09-18T12:09:36.411Z,1005.88
2018-09-18T12:10:36.103Z,1005.76
2018-09-18T12:11:36.069Z,1005.76
2018-09-18T12:12:36.069Z,1005.97
2018-09-18T12:13:37.035Z,1005.79
2018-09-18T12:14:36.098Z,1005.94
2018-09-18T12:15:36.653Z,1005.83
2018-09-18T12:16:35.932Z,1005.85
2018-09-18T12:17:36.872Z,1005.84
2018-09-18T12:18:36.090Z,1005.85
2018-09-18T12:19:36.088Z,1005.85
2018-09-18T12:20:36.545Z,1005.84
2018-09-18T12:21:36.045Z,1005.85
2018-09-18T12:22:37.942Z,1006.01
2018-09-18T12:23:35.886Z,1005.89
2018-09-18T12:24:37.889Z,1005.92
2018-09-18T12:25:36.062Z,1005.81
2018-09-18T12:26:35.957Z,1005.84
2018-09-18T12:27:36.598Z,1005.85
2018-09-18T12:28:36.008Z,1005.83
2018-09-18T12:29:36.283Z,1005.85
2018-09-18T12:30:36.583Z,1005.80